Time;durP1;ratioP1;P1;durP2;ratioP2;P2;SDS_P1;SDS_P2;PMS_P1;PMS_P2;Temp;Humidity;BMP_temperature;BMP_pressure;BME280_temperature;BME280_humidity;BME280_pressure;Samples;Min_cycle;Max_cycle;Signal;HPM_P1;HPM_P2
2022/05/19 00:02:25;;;;;;;;;8.20;5.00;;;;;25.63;52.53;101181.72;5098759;27;45516;-45
2022/05/19 00:04:50;;;;;;;;;17.50;15.50;;;;;25.63;52.64;101184.47;5098804;27;45325;-42
2022/05/19 00:07:16;;;;;;;;;15.50;14.00;;;;;25.53;52.89;101165.13;5098754;27;45382;-50
2022/05/19 00:09:42;;;;;;;;;16.50;11.50;;;;;25.65;52.46;101182.31;5098811;27;45348;-48
2022/05/19 00:12:20;;;;;;;;;14.20;12.20;;;;;25.67;52.72;101193.00;5098526;27;45480;-42
2022/05/19 00:14:46;;;;;;;;;14.40;12.80;;;;;25.66;52.15;101191.31;5098828;27;45538;-41
2022/05/19 00:17:11;;;;;;;;;17.00;15.00;;;;;25.66;52.33;101197.59;5098581;27;47094;-43
2022/05/19 00:19:37;;;;;;;;;12.75;11.25;;;;;25.66;52.45;101194.03;5097546;27;45289;-43
2022/05/19 00:22:03;;;;;;;;;14.60;12.20;;;;;25.64;52.55;101197.84;5098525;27;45288;-45
2022/05/19 00:24:29;;;;;;;;;14.25;11.25;;;;;25.63;53.10;101192.63;5098670;27;45226;-48
2022/05/19 00:26:54;;;;;;;;;12.75;12.50;;;;;25.56;53.16;101181.00;5097738;27;45506;-43
2022/05/19 00:29:20;;;;;;;;;12.25;10.50;;;;;25.54;52.85;101188.59;5097765;27;45401;-43
2022/05/19 00:31:45;;;;;;;;;9.00;9.00;;;;;25.54;53.32;101183.97;5097749;27;45407;-44
2022/05/19 00:34:11;;;;;;;;;11.50;11.50;;;;;25.51;53.60;101176.28;5098534;27;45390;-43
2022/05/19 00:36:36;;;;;;;;;11.75;10.00;;;;;25.49;53.60;101178.38;5080097;27;46776;-44
2022/05/19 00:39:02;;;;;;;;;12.25;10.75;;;;;25.45;53.58;101173.63;5098389;27;45257;-50
2022/05/19 00:41:27;;;;;;;;;7.00;7.00;;;;;25.41;53.17;101167.00;5098616;27;45408;-43
2022/05/19 00:44:04;;;;;;;;;13.75;10.50;;;;;25.37;52.96;101159.31;5098799;27;45483;-47
2022/05/19 00:46:44;;;;;;;;;12.40;11.80;;;;;25.33;53.71;101146.41;5097580;27;45547;-44
2022/05/19 00:49:15;;;;;;;;;10.20;9.60;;;;;24.92;54.26;101085.47;5097436;27;45509;-43
2022/05/19 00:51:47;;;;;;;;;12.20;10.20;;;;;25.28;53.36;101151.72;5098184;27;45389;-43
2022/05/19 00:54:17;;;;;;;;;11.00;11.00;;;;;25.26;53.89;101143.78;5098305;27;45499;-47
2022/05/19 00:56:48;;;;;;;;;11.80;11.80;;;;;25.22;53.78;101141.78;5097593;27;46266;-49
2022/05/19 00:59:31;;;;;;;;;13.80;10.00;;;;;25.20;54.44;101133.00;5098019;27;45461;-50
2022/05/19 01:01:57;;;;;;;;;14.20;13.40;;;;;25.20;54.43;101135.72;5098069;27;45391;-47
2022/05/19 01:04:35;;;;;;;;;16.50;10.75;;;;;25.17;54.69;101128.88;5097996;27;45471;-45
2022/05/19 01:07:10;;;;;;;;;14.00;10.00;;;;;25.18;54.59;101125.06;5097633;27;46380;-50
2022/05/19 01:09:37;;;;;;;;;9.40;8.00;;;;;25.16;54.94;101129.06;5097707;27;45509;-47
2022/05/19 01:12:04;;;;;;;;;14.60;13.60;;;;;25.11;55.30;101127.06;5098034;27;45325;-46
2022/05/19 01:14:31;;;;;;;;;13.40;12.20;;;;;24.95;54.95;101100.50;5097774;27;45330;-45
2022/05/19 01:16:57;;;;;;;;;11.80;10.40;;;;;25.05;55.22;101120.63;5097568;27;46902;-44
2022/05/19 01:19:48;;;;;;;;;13.25;9.25;;;;;25.04;55.15;101116.25;5097404;27;45447;-44
2022/05/19 01:22:30;;;;;;;;;14.00;13.20;;;;;25.04;55.35;101118.97;5097759;27;45243;-45
2022/05/19 01:25:16;;;;;;;;;10.40;10.00;;;;;25.02;54.94;101121.09;5097992;27;45217;-43
2022/05/19 01:27:42;;;;;;;;;12.60;12.60;;;;;24.99;55.59;101118.84;5097530;27;47198;-44
2022/05/19 01:30:09;;;;;;;;;14.75;13.25;;;;;24.98;55.21;101113.63;5097673;27;45348;-43
2022/05/19 01:32:35;;;;;;;;;12.80;10.80;;;;;24.98;55.63;101110.91;5098024;27;45408;-43
2022/05/19 01:35:01;;;;;;;;;11.50;11.25;;;;;24.95;55.33;101109.50;5097902;27;45359;-45
2022/05/19 01:37:27;;;;;;;;;11.25;11.25;;;;;24.93;55.76;101114.31;5097641;27;46155;-46
2022/05/19 01:39:59;;;;;;;;;12.75;12.50;;;;;24.89;55.30;101110.41;5097611;27;45485;-43
2022/05/19 01:42:55;;;;;;;;;14.60;13.40;;;;;24.86;55.55;101106.28;5097626;27;45396;-44
2022/05/19 01:45:45;;;;;;;;;17.00;12.75;;;;;24.80;56.02;101109.91;5097872;27;45278;-51
2022/05/19 01:48:38;;;;;;;;;18.80;13.20;;;;;24.75;56.35;101109.78;5097453;27;47357;-44
2022/05/19 01:51:14;;;;;;;;;13.20;11.00;;;;;24.71;56.59;101122.19;5097548;27;45375;-43
2022/05/19 01:53:51;;;;;;;;;14.40;14.00;;;;;24.71;56.61;101124.91;5096175;27;45458;-44
2022/05/19 01:56:28;;;;;;;;;13.75;13.75;;;;;24.72;56.51;101117.56;5097560;27;45448;-44
2022/05/19 01:59:06;;;;;;;;;14.40;14.40;;;;;24.72;56.38;101120.28;5097480;27;45321;-45
2022/05/19 02:01:31;;;;;;;;;15.60;13.80;;;;;24.66;56.56;101110.34;5099639;27;45308;-46
2022/05/19 02:04:15;;;;;;;;;12.75;11.00;;;;;24.71;56.38;101113.19;5100972;27;45351;-46
2022/05/19 02:06:54;;;;;;;;;13.75;12.75;;;;;24.70;55.60;101112.38;5101173;27;45395;-43
2022/05/19 02:09:28;;;;;;;;;13.60;12.00;;;;;24.68;56.60;101110.94;5100661;27;46047;-45
2022/05/19 02:11:56;;;;;;;;;11.00;11.00;;;;;24.67;56.83;101117.44;5100082;27;45404;-43
2022/05/19 02:14:28;;;;;;;;;14.00;13.20;;;;;24.66;56.62;101113.06;5100034;27;45628;-43
2022/05/19 02:16:54;;;;;;;;;15.50;14.00;;;;;24.66;57.21;101116.63;5100807;27;45400;-45
2022/05/19 02:19:24;;;;;;;;;14.50;13.75;;;;;24.66;57.15;101113.91;5100660;27;47266;-43
2022/05/19 02:21:50;;;;;;;;;16.60;14.80;;;;;24.65;57.15;101117.69;5100639;27;45502;-45
2022/05/19 02:24:19;;;;;;;;;16.00;12.40;;;;;24.55;57.04;101106.50;5101086;27;45441;-44
2022/05/19 02:26:45;;;;;;;;;10.25;9.50;;;;;24.56;57.50;101110.88;5100870;27;45413;-45
2022/05/19 02:29:17;;;;;;;;;15.50;13.50;;;;;24.60;57.33;101121.06;5100471;27;46901;-44
2022/05/19 02:31:46;;;;;;;;;13.40;13.40;;;;;24.57;57.40;101116.13;5100790;27;45486;-46
2022/05/19 02:34:12;;;;;;;;;13.80;12.40;;;;;24.48;57.43;101101.19;5100457;27;45281;-53
2022/05/19 02:36:39;;;;;;;;;12.75;12.75;;;;;24.55;57.75;101117.38;5100439;27;45336;-44
2022/05/19 02:39:05;;;;;;;;;12.40;12.40;;;;;24.53;57.42;101116.81;5100527;27;45402;-43
2022/05/19 02:41:30;;;;;;;;;14.40;11.80;;;;;24.52;57.46;101115.94;5100526;27;45364;-44
2022/05/19 02:43:56;;;;;;;;;13.50;13.50;;;;;24.46;57.66;101111.44;5100567;27;45348;-43
2022/05/19 02:46:21;;;;;;;;;13.00;11.75;;;;;24.41;57.76;101095.00;5082257;27;45547;-45
2022/05/19 02:48:46;;;;;;;;;13.00;12.50;;;;;24.48;57.47;101120.22;5100158;27;47033;-43
2022/05/19 02:51:12;;;;;;;;;14.50;14.50;;;;;24.48;57.72;101119.38;5099737;27;45420;-43
2022/05/19 02:53:37;;;;;;;;;13.75;13.75;;;;;24.47;57.95;101113.09;5100261;27;45420;-47
2022/05/19 02:56:03;;;;;;;;;15.25;14.00;;;;;24.44;58.12;101124.47;5100378;27;45465;-46
2022/05/19 02:58:28;;;;;;;;;15.75;15.75;;;;;24.44;58.29;101119.00;5099699;27;47218;-44
2022/05/19 03:00:54;;;;;;;;;16.00;13.50;;;;;24.44;58.01;101115.44;5099882;27;45417;-45
2022/05/19 03:03:19;;;;;;;;;16.00;13.00;;;;;24.40;58.04;101115.09;5100231;27;45313;-46
2022/05/19 03:05:45;;;;;;;;;16.00;14.50;;;;;24.38;58.36;101120.75;5098863;27;45596;-46
2022/05/19 03:08:11;;;;;;;;;18.25;15.50;;;;;24.38;58.26;101119.91;5098691;27;45283;-44
2022/05/19 03:10:39;;;;;;;;;12.50;10.50;;;;;24.37;58.03;101129.09;5098118;27;45504;-44
2022/05/19 03:13:06;;;;;;;;;14.20;12.00;;;;;24.36;58.33;101130.19;5098217;27;45417;-44
2022/05/19 03:15:33;;;;;;;;;11.00;11.00;;;;;24.31;58.60;101127.28;5099241;27;45361;-47
2022/05/19 03:17:58;;;;;;;;;14.25;13.00;;;;;24.28;58.62;101120.44;5098728;27;45293;-44
2022/05/19 03:20:24;;;;;;;;;13.50;13.00;;;;;24.25;58.65;101125.50;5098809;27;45488;-42
2022/05/19 03:22:49;;;;;;;;;15.75;15.00;;;;;24.20;58.69;101115.31;5098736;27;45442;-43
2022/05/19 03:25:15;;;;;;;;;15.75;14.00;;;;;24.21;59.05;101116.13;5098634;27;45349;-47
2022/05/19 03:27:41;;;;;;;;;17.50;15.25;;;;;24.11;59.10;101106.63;5098605;27;46157;-45
2022/05/19 03:30:13;;;;;;;;;15.75;13.50;;;;;24.21;58.58;101118.84;5098559;27;45271;-43
2022/05/19 03:32:38;;;;;;;;;17.25;14.75;;;;;24.21;58.78;101119.69;5098265;27;45302;-44
2022/05/19 03:35:04;;;;;;;;;16.50;15.25;;;;;24.22;58.91;101112.34;5098611;27;45357;-43
2022/05/19 03:37:30;;;;;;;;;15.75;14.50;;;;;24.20;58.78;101117.19;5098244;27;45412;-45
2022/05/19 03:39:56;;;;;;;;;15.25;14.00;;;;;24.18;58.74;101117.41;5097813;27;45222;-50
2022/05/19 03:42:21;;;;;;;;;16.75;14.50;;;;;24.15;58.95;101112.44;5098336;27;45444;-44
2022/05/19 03:44:46;;;;;;;;;12.50;12.00;;;;;24.13;59.00;101109.94;5098360;27;45408;-42
2022/05/19 03:47:12;;;;;;;;;15.00;14.50;;;;;24.11;58.84;101105.81;5098043;27;45389;-45
2022/05/19 03:49:37;;;;;;;;;15.00;15.00;;;;;24.10;59.03;101106.84;5098083;27;45325;-43
2022/05/19 03:52:04;;;;;;;;;17.50;15.50;;;;;24.04;59.42;101122.16;5098179;27;45336;-44
2022/05/19 03:54:30;;;;;;;;;19.00;15.00;;;;;24.00;59.78;101120.97;5098157;27;45241;-41
2022/05/19 03:56:55;;;;;;;;;14.00;13.25;;;;;23.97;59.78;101112.44;5097524;27;46385;-43
2022/05/19 03:59:20;;;;;;;;;15.25;14.75;;;;;23.89;59.89;101111.69;5097886;27;45417;-42
2022/05/19 04:01:46;;;;;;;;;13.25;12.25;;;;;23.88;59.78;101111.91;5098128;27;45253;-42
2022/05/19 04:04:12;;;;;;;;;17.25;15.00;;;;;23.94;59.67;101124.59;5057883;27;1139114;-43
2022/05/19 04:06:37;;;;;;;;;13.50;13.50;;;;;23.89;59.82;101116.28;5097944;27;45430;-44
2022/05/19 04:09:04;;;;;;;;;15.00;10.00;;;;;23.79;60.26;101111.38;5098930;27;45486;-43
2022/05/19 04:11:30;;;;;;;;;15.00;13.00;;;;;23.91;59.81;101127.75;5099453;27;45351;-49
2022/05/19 04:13:56;;;;;;;;;16.00;14.50;;;;;23.92;59.84;101131.31;5099125;27;45290;-44
2022/05/19 04:16:21;;;;;;;;;12.00;12.00;;;;;23.88;59.61;101123.59;5098968;27;45498;-48
2022/05/19 04:18:46;;;;;;;;;19.25;16.50;;;;;23.90;59.85;101110.63;5099044;27;45306;-44
2022/05/19 04:21:12;;;;;;;;;17.50;14.50;;;;;23.89;59.98;101122.56;5099015;27;45241;-42
2022/05/19 04:23:37;;;;;;;;;14.50;13.25;;;;;23.88;59.79;101112.72;5098307;27;45292;-43
2022/05/19 04:26:03;;;;;;;;;13.75;13.75;;;;;23.90;59.37;101115.25;5098811;27;45402;-43
2022/05/19 04:28:29;;;;;;;;;16.00;15.50;;;;;23.90;59.91;101112.53;5098451;27;45286;-42
2022/05/19 04:30:54;;;;;;;;;16.00;14.00;;;;;23.95;59.64;101118.09;5098747;27;45717;-45
2022/05/19 04:33:19;;;;;;;;;15.25;13.25;;;;;23.96;59.81;101116.22;5098797;27;45247;-44
2022/05/19 04:35:45;;;;;;;;;18.75;15.75;;;;;23.94;59.57;101118.34;5098548;27;46941;-45
2022/05/19 04:38:13;;;;;;;;;15.00;15.00;;;;;23.83;59.79;101104.44;5098592;27;45572;-43
2022/05/19 04:40:41;;;;;;;;;16.40;14.40;;;;;23.89;59.36;101124.41;5098543;27;45324;-44
2022/05/19 04:43:09;;;;;;;;;19.25;14.25;;;;;23.88;59.82;101117.34;5098582;27;45438;-43
2022/05/19 04:45:35;;;;;;;;;14.25;14.00;;;;;23.88;59.70;101118.16;5080022;27;47292;-43
2022/05/19 04:48:01;;;;;;;;;0.00;0.00;;;;;23.94;59.90;101127.31;5098256;27;45458;-47
2022/05/19 04:50:27;;;;;;;;;13.00;13.00;;;;;23.93;59.67;101116.66;5098513;27;45308;-46
2022/05/19 04:52:52;;;;;;;;;17.25;15.50;;;;;23.96;59.76;101130.63;5098461;27;45584;-44
2022/05/19 04:55:18;;;;;;;;;16.25;14.00;;;;;24.00;59.51;101140.00;5098472;27;45987;-46
2022/05/19 04:57:43;;;;;;;;;12.00;10.50;;;;;24.04;59.78;101141.19;5098052;27;45440;-46
2022/05/19 05:00:12;;;;;;;;;15.75;12.00;;;;;24.03;58.73;101139.53;5098266;27;45866;-43
2022/05/19 05:02:38;;;;;;;;;15.25;15.25;;;;;23.98;59.18;101144.84;5098438;27;45507;-43
2022/05/19 05:05:05;;;;;;;;;16.50;15.00;;;;;24.04;59.29;101175.69;5097660;27;46325;-43
2022/05/19 05:07:30;;;;;;;;;14.60;13.40;;;;;24.07;59.01;101181.53;5098007;27;45242;-45
2022/05/19 05:09:55;;;;;;;;;15.25;14.00;;;;;24.09;58.79;101171.25;5098068;27;45400;-43
2022/05/19 05:12:21;;;;;;;;;14.75;13.00;;;;;24.12;58.35;101178.13;5096919;27;45552;-45
2022/05/19 05:14:46;;;;;;;;;14.00;12.75;;;;;24.18;58.46;101179.09;5096518;27;45442;-44
2022/05/19 05:17:11;;;;;;;;;16.00;12.25;;;;;24.23;58.16;101187.41;5097982;27;45410;-44
2022/05/19 05:19:37;;;;;;;;;10.50;10.50;;;;;24.28;57.83;101241.94;5098199;27;45502;-43
2022/05/19 05:22:02;;;;;;;;;14.50;14.00;;;;;24.28;58.27;101250.09;5098197;27;45426;-44
2022/05/19 05:24:28;;;;;;;;;15.25;14.50;;;;;24.28;58.20;101214.75;5097654;27;46188;-46
2022/05/19 05:26:53;;;;;;;;;13.25;13.25;;;;;24.31;58.06;101206.13;5097440;27;45393;-47
2022/05/19 05:29:19;;;;;;;;;16.00;14.00;;;;;24.31;57.73;101220.59;5079591;27;45550;-45
2022/05/19 05:31:45;;;;;;;;;14.25;12.75;;;;;24.19;57.93;101235.13;5098100;27;45356;-43
2022/05/19 05:34:11;;;;;;;;;14.75;14.75;;;;;24.08;58.55;101212.25;5097254;27;47623;-44
2022/05/19 05:36:37;;;;;;;;;13.50;13.25;;;;;24.15;57.92;101237.47;5097734;27;45322;-44
2022/05/19 05:39:02;;;;;;;;;16.00;14.50;;;;;24.19;58.38;101227.81;5096628;27;45467;-44
2022/05/19 05:41:28;;;;;;;;;17.25;14.75;;;;;24.19;57.80;101219.66;5097856;27;45331;-43
2022/05/19 05:43:53;;;;;;;;;15.50;13.75;;;;;24.25;58.08;101217.94;5097513;27;46587;-45
2022/05/19 05:46:19;;;;;;;;;15.75;13.75;;;;;24.31;57.55;101222.44;5079041;27;45268;-44
2022/05/19 05:48:45;;;;;;;;;14.00;13.75;;;;;24.35;57.70;101229.91;5097718;27;45290;-43
2022/05/19 05:51:12;;;;;;;;;16.50;15.00;;;;;24.31;57.40;101217.00;5097851;27;45490;-43
2022/05/19 05:53:40;;;;;;;;;16.25;13.50;;;;;24.44;57.12;101225.06;5097273;27;46236;-52
2022/05/19 05:56:07;;;;;;;;;16.20;14.60;;;;;24.51;57.38;101219.53;5079154;27;45467;-50
2022/05/19 05:58:33;;;;;;;;;12.00;12.00;;;;;24.53;56.92;101231.88;5097423;27;45242;-44
2022/05/19 06:01:01;;;;;;;;;19.25;14.50;;;;;24.52;56.53;101205.69;5097655;27;45457;-42
2022/05/19 06:03:27;;;;;;;;;15.75;14.00;;;;;24.54;57.09;101210.94;5097066;27;46283;-44
2022/05/19 06:05:52;;;;;;;;;17.25;15.00;;;;;24.59;56.70;101206.47;5097324;27;45428;-45
2022/05/19 06:08:18;;;;;;;;;18.00;16.00;;;;;24.69;56.78;101199.66;5097425;27;45912;-43
2022/05/19 06:10:45;;;;;;;;;8.75;8.75;;;;;24.77;56.78;101197.44;5098637;27;45586;-44
2022/05/19 06:13:10;;;;;;;;;16.25;15.50;;;;;24.83;56.57;101187.53;5097802;27;46182;-43
2022/05/19 06:15:36;;;;;;;;;18.25;16.75;;;;;24.99;55.92;101210.53;5097884;27;45253;-43
2022/05/19 06:18:01;;;;;;;;;22.00;17.25;;;;;25.04;55.82;101216.16;5097717;27;45471;-43
2022/05/19 06:20:27;;;;;;;;;17.25;15.50;;;;;25.10;55.43;101220.69;5097717;27;45351;-43
2022/05/19 06:22:53;;;;;;;;;16.75;14.50;;;;;25.02;55.71;101204.63;5097127;27;45263;-44
2022/05/19 06:25:21;;;;;;;;;15.75;14.25;;;;;25.07;55.73;101218.38;5096957;27;45592;-42
2022/05/19 06:27:49;;;;;;;;;17.00;16.20;;;;;25.04;55.63;101224.31;5107839;27;45404;-43
2022/05/19 06:30:15;;;;;;;;;16.00;15.50;;;;;25.02;55.75;101224.53;5117621;27;45265;-43
2022/05/19 06:32:42;;;;;;;;;16.25;14.50;;;;;25.08;55.55;101222.78;5110094;27;45418;-45
2022/05/19 06:35:09;;;;;;;;;18.00;15.60;;;;;25.13;56.11;101222.94;5096703;27;45282;-42
2022/05/19 06:37:34;;;;;;;;;15.80;13.40;;;;;25.14;55.92;101216.44;5096250;27;45424;-46
2022/05/19 06:40:00;;;;;;;;;20.00;13.50;;;;;25.14;55.77;101213.72;5095760;27;45359;-43
2022/05/19 06:42:26;;;;;;;;;19.00;16.50;;;;;25.17;55.39;101207.81;5095421;27;46831;-42
2022/05/19 06:44:51;;;;;;;;;19.50;15.75;;;;;25.21;55.22;101216.34;5096410;27;45989;-44
2022/05/19 06:47:17;;;;;;;;;16.75;16.25;;;;;25.27;55.71;101220.84;5098714;27;45419;-45
2022/05/19 06:49:46;;;;;;;;;19.25;16.25;;;;;25.38;55.28;101220.91;5100455;27;45494;-42
2022/05/19 06:52:17;;;;;;;;;17.00;15.25;;;;;25.50;55.18;101226.38;5099524;27;47223;-44
2022/05/19 06:54:52;;;;;;;;;14.60;14.60;;;;;25.56;54.77;101225.41;5097576;27;45538;-43
2022/05/19 06:57:19;;;;;;;;;17.40;14.60;;;;;25.62;54.26;101229.94;5082867;27;45451;-42
2022/05/19 06:59:46;;;;;;;;;15.00;13.25;;;;;25.56;53.85;101214.53;5093290;27;45578;-45
2022/05/19 07:02:12;;;;;;;;;18.75;13.00;;;;;25.69;53.92;101229.00;5096944;27;47037;-44
2022/05/19 07:04:39;;;;;;;;;15.00;12.20;;;;;25.72;54.29;101237.53;5094119;27;46510;-43
2022/05/19 07:07:04;;;;;;;;;17.20;15.40;;;;;25.83;53.48;101231.31;5088026;27;45435;-44
2022/05/19 07:09:31;;;;;;;;;15.50;14.50;;;;;25.92;53.19;101233.69;5091983;27;45457;-44
2022/05/19 07:11:57;;;;;;;;;21.60;18.20;;;;;25.91;53.18;101219.19;5089366;27;45436;-44
2022/05/19 07:14:22;;;;;;;;;14.50;14.50;;;;;26.09;53.02;101237.34;5089193;27;45547;-46
2022/05/19 07:16:48;;;;;;;;;17.75;16.00;;;;;26.19;53.34;101234.03;5090443;27;45881;-43
2022/05/19 07:21:59;;;;;;;;;19.00;17.40;;;;;26.56;52.15;101243.59;5092463;27;45327;-45
2022/05/19 07:24:24;;;;;;;;;19.00;17.00;;;;;26.64;52.17;101241.56;5090340;27;45474;-43
2022/05/19 07:26:54;;;;;;;;;17.25;14.50;;;;;26.78;51.54;101237.50;5093247;27;45419;-43
2022/05/19 07:29:21;;;;;;;;;15.20;14.60;;;;;26.80;51.67;101228.00;5091413;27;45596;-43
2022/05/19 07:31:47;;;;;;;;;16.40;16.00;;;;;26.91;51.39;101228.19;5093353;27;45932;-43
2022/05/19 07:34:15;;;;;;;;;23.00;18.50;;;;;26.97;51.52;101221.72;5096830;27;45320;-43
2022/05/19 07:36:40;;;;;;;;;17.60;17.60;;;;;26.96;51.11;101236.47;5092947;27;45806;-43
2022/05/19 07:39:06;;;;;;;;;16.50;15.25;;;;;27.41;50.34;101222.84;5087307;27;45412;-42
2022/05/19 07:41:32;;;;;;;;;17.25;16.75;;;;;28.82;48.10;101251.75;5087316;27;46897;-43
2022/05/19 07:43:58;;;;;;;;;15.60;15.60;;;;;29.70;45.28;101189.34;5094300;27;45465;-43
2022/05/19 07:46:25;;;;;;;;;16.40;14.40;;;;;31.00;43.41;101246.28;5088050;27;45525;-42
2022/05/19 07:48:54;;;;;;;;;16.80;14.80;;;;;32.62;40.55;101241.00;5088589;27;45474;-43
2022/05/19 07:51:25;;;;;;;;;16.20;16.20;;;;;34.04;37.60;101230.06;5096710;27;46198;-45
2022/05/19 07:53:51;;;;;;;;;18.80;16.20;;;;;35.09;34.94;101235.69;5092007;27;45494;-43
2022/05/19 07:56:17;;;;;;;;;15.40;13.80;;;;;36.70;34.53;101243.31;5094791;27;45769;-45
2022/05/19 07:58:43;;;;;;;;;20.00;17.20;;;;;37.85;32.41;101241.97;5084947;27;45512;-43
2022/05/19 08:01:08;;;;;;;;;16.00;14.00;;;;;38.88;29.91;101249.88;5092309;27;45539;-44
2022/05/19 08:03:34;;;;;;;;;17.25;16.00;;;;;39.70;28.38;101268.69;5090968;27;46171;-43
2022/05/19 08:06:00;;;;;;;;;14.75;12.50;;;;;40.88;30.37;101266.06;5093778;27;45495;-44
2022/05/19 08:08:25;;;;;;;;;15.25;12.50;;;;;42.06;25.39;101251.66;5086442;27;45438;-46
2022/05/19 08:10:54;;;;;;;;;13.00;13.00;;;;;43.14;23.58;101263.44;5092596;27;46324;-45
2022/05/19 08:16:04;;;;;;;;;16.00;15.00;;;;;45.02;21.81;101266.66;5086085;27;45389;-44
2022/05/19 08:18:30;;;;;;;;;20.50;15.00;;;;;45.86;20.91;101262.31;5091794;27;45409;-52
2022/05/19 08:21:00;;;;;;;;;13.75;12.50;;;;;46.43;21.94;101280.13;5087505;27;45805;-46
2022/05/19 08:23:34;;;;;;;;;16.40;12.20;;;;;46.54;20.14;101275.47;5089252;27;46352;-44
2022/05/19 08:26:00;;;;;;;;;12.20;11.80;;;;;46.59;20.42;101289.22;5086420;27;45522;-42
2022/05/19 08:28:29;;;;;;;;;14.20;13.60;;;;;46.66;19.59;101280.91;5087906;27;45594;-44
2022/05/19 08:31:00;;;;;;;;;13.80;13.80;;;;;46.56;23.01;101280.72;5087190;27;45447;-43
2022/05/19 08:33:27;;;;;;;;;14.60;11.20;;;;;46.97;20.10;101278.91;5088096;27;45409;-43
2022/05/19 08:35:53;;;;;;;;;14.00;13.20;;;;;47.03;20.92;101304.72;5089421;27;45427;-47
2022/05/19 08:38:19;;;;;;;;;15.60;13.20;;;;;47.02;19.84;101306.72;5091577;27;45352;-43
2022/05/19 08:40:47;;;;;;;;;15.40;12.20;;;;;46.79;19.67;101311.63;5086658;27;46284;-43
2022/05/19 08:43:16;;;;;;;;;16.80;13.60;;;;;45.46;21.46;101330.97;5093082;27;45349;-46
2022/05/19 08:45:47;;;;;;;;;13.20;12.80;;;;;43.85;23.66;101349.53;5083541;27;45426;-43
2022/05/19 08:48:19;;;;;;;;;12.00;10.60;;;;;44.19;22.57;101358.44;5090514;27;45270;-44
2022/05/19 08:51:01;;;;;;;;;12.60;11.40;;;;;44.79;21.66;101359.16;5088761;27;46325;-43
2022/05/19 08:53:30;;;;;;;;;12.20;9.80;;;;;45.17;20.79;101372.50;5093161;27;45469;-44
2022/05/19 08:56:12;;;;;;;;;13.00;9.80;;;;;45.33;21.28;101364.00;5087186;27;45411;-42
2022/05/19 08:59:18;;;;;;;;;10.60;10.60;;;;;45.52;19.83;101372.47;5088990;27;45347;-43
2022/05/19 09:01:48;;;;;;;;;8.40;7.00;;;;;46.17;19.30;101379.34;5088429;27;47143;-46
2022/05/19 09:04:35;;;;;;;;;9.40;9.40;;;;;46.56;19.08;101373.59;5084875;27;45477;-43
2022/05/19 09:10:11;;;;;;;;;11.00;10.40;;;;;48.04;17.70;101386.47;5082504;27;45500;-48
2022/05/19 09:12:38;;;;;;;;;7.60;7.60;;;;;48.32;17.45;101378.25;5086702;27;45442;-44
2022/05/19 09:15:07;;;;;;;;;11.60;9.40;;;;;47.59;17.53;101386.38;5087953;27;45510;-45
2022/05/19 09:17:37;;;;;;;;;9.00;7.80;;;;;46.95;18.74;101382.69;5087541;27;45427;-45
2022/05/19 09:20:09;;;;;;;;;8.20;8.20;;;;;46.50;18.73;101395.59;5089619;27;45617;-47
2022/05/19 09:22:34;;;;;;;;;8.40;8.40;;;;;45.72;18.90;101407.00;5084635;27;47087;-43
2022/05/19 09:25:21;;;;;;;;;10.25;8.00;;;;;43.27;21.20;101405.03;5087168;27;45468;-43
2022/05/19 09:27:50;;;;;;;;;7.20;5.00;;;;;43.52;21.02;101417.03;5091068;27;45616;-48
2022/05/19 09:30:28;;;;;;;;;7.40;7.00;;;;;44.37;19.82;101423.44;5088075;27;45450;-44
2022/05/19 09:32:56;;;;;;;;;4.80;4.80;;;;;45.38;19.45;101439.56;5089536;27;47216;-42
2022/05/19 09:35:34;;;;;;;;;8.00;6.80;;;;;46.49;18.63;101433.38;5086159;27;45443;-45
2022/05/19 09:38:13;;;;;;;;;5.00;5.00;;;;;47.14;17.98;101432.44;5091072;27;45510;-45
2022/05/19 09:40:46;;;;;;;;;6.20;6.00;;;;;45.65;18.47;101446.22;5090085;27;45418;-42
2022/05/19 09:43:17;;;;;;;;;9.00;9.00;;;;;43.37;20.09;101468.97;5085730;27;46148;-43
2022/05/19 09:45:46;;;;;;;;;9.80;8.60;;;;;41.43;21.88;101470.81;5084346;27;45671;-43
2022/05/19 09:48:12;;;;;;;;;10.20;9.20;;;;;40.45;22.67;101483.78;5087543;27;46016;-44
2022/05/19 09:50:50;;;;;;;;;13.75;11.50;;;;;42.21;21.29;101475.78;5088634;27;45499;-44
2022/05/19 09:53:27;;;;;;;;;12.20;9.80;;;;;43.55;19.86;101491.97;5089486;27;47891;-44
2022/05/19 09:56:01;;;;;;;;;10.80;10.20;;;;;44.50;19.02;101489.50;5085832;27;45396;-44
2022/05/19 09:58:31;;;;;;;;;12.20;10.00;;;;;45.36;18.66;101500.13;5085246;27;45507;-44
2022/05/19 10:01:05;;;;;;;;;10.60;9.80;;;;;46.20;17.32;101506.00;5089652;27;45443;-44
2022/05/19 10:03:38;;;;;;;;;11.20;9.80;;;;;46.44;17.28;101515.28;5089922;27;46678;-45
2022/05/19 10:06:24;;;;;;;;;11.00;7.80;;;;;46.94;17.33;101505.75;5085337;27;45789;-43
2022/05/19 10:09:13;;;;;;;;;8.00;8.00;;;;;47.59;17.04;101504.75;5080891;27;45417;-44
2022/05/19 10:11:54;;;;;;;;;7.60;7.60;;;;;47.12;16.72;101508.88;5082952;27;45791;-44
2022/05/19 10:14:31;;;;;;;;;8.00;6.20;;;;;46.62;16.60;101493.97;5077505;27;45548;-44
2022/05/19 10:17:14;;;;;;;;;7.80;6.80;;;;;45.35;17.46;101498.50;5082848;27;45465;-46
2022/05/19 10:19:40;;;;;;;;;7.20;6.00;;;;;43.67;18.96;101507.94;5080608;27;45478;-44
2022/05/19 10:22:32;;;;;;;;;8.00;8.00;;;;;42.46;19.99;101522.25;5085622;27;45399;-47
2022/05/19 10:25:00;;;;;;;;;6.20;4.40;;;;;42.51;19.83;101533.22;5086394;27;45427;-45
2022/05/19 10:33:32;;;;;;;;;6.40;5.00;;;;;43.65;19.20;101538.28;5085236;27;45509;-46
2022/05/19 10:36:25;;;;;;;;;4.60;4.60;;;;;44.14;18.94;101539.00;5084366;27;46932;-45
2022/05/19 10:39:06;;;;;;;;;3.20;3.20;;;;;44.62;17.86;101534.31;5085227;27;45463;-44
2022/05/19 10:41:50;;;;;;;;;4.40;4.00;;;;;44.47;18.03;101524.72;5090174;27;45495;-47
2022/05/19 10:44:34;;;;;;;;;8.00;4.00;;;;;44.24;18.21;101526.44;5085472;27;46242;-50
2022/05/19 10:47:15;;;;;;;;;3.20;3.20;;;;;44.05;18.27;101532.72;5082336;27;46235;-47
2022/05/19 10:50:03;;;;;;;;;3.00;3.00;;;;;43.50;18.63;101525.81;5085786;27;45458;-44
2022/05/19 10:53:06;;;;;;;;;4.00;2.00;;;;;43.18;18.98;101521.97;5073609;27;45527;-43
2022/05/19 10:56:09;;;;;;;;;5.00;4.80;;;;;42.48;18.95;101521.91;5069584;27;45394;-43
2022/05/19 10:59:18;;;;;;;;;3.00;3.00;;;;;41.12;20.24;101538.94;5071574;28;45515;-44
2022/05/19 11:02:07;;;;;;;;;6.60;4.20;;;;;39.73;21.07;101535.41;5073423;28;45527;-45
2022/05/19 11:04:48;;;;;;;;;1.60;1.00;;;;;38.55;22.17;101527.47;5068493;27;45432;-44
2022/05/19 11:07:43;;;;;;;;;2.20;2.20;;;;;37.45;22.64;101533.31;5068997;27;45445;-43
2022/05/19 11:10:18;;;;;;;;;0.80;0.80;;;;;36.93;23.56;101527.91;5048543;28;46381;-44
2022/05/19 11:13:01;;;;;;;;;0.60;0.60;;;;;36.40;24.00;101524.63;5066148;27;46348;-44
2022/05/19 11:15:32;;;;;;;;;2.60;2.60;;;;;35.88;24.86;101529.25;5068618;28;45530;-45
2022/05/19 11:18:18;;;;;;;;;5.20;4.00;;;;;35.25;25.09;101516.47;5067480;27;45435;-43
2022/05/19 11:21:04;;;;;;;;;4.00;3.60;;;;;34.50;26.64;101534.28;5066928;28;47142;-43
2022/05/19 11:23:48;;;;;;;;;5.00;2.20;;;;;33.77;26.28;101525.88;5064698;27;45477;-46
2022/05/19 11:26:35;;;;;;;;;2.40;2.40;;;;;33.11;28.16;101526.91;5069365;28;45568;-45
2022/05/19 11:29:14;;;;;;;;;3.00;3.00;;;;;32.56;28.63;101516.72;5070811;28;45883;-48
2022/05/19 11:31:54;;;;;;;;;3.00;1.60;;;;;32.37;28.69;101521.94;5070283;28;46684;-44
2022/05/19 11:34:44;;;;;;;;;3.00;3.00;;;;;32.51;28.27;101512.88;5070595;28;45456;-43
2022/05/19 11:37:16;;;;;;;;;3.60;2.20;;;;;32.69;28.43;101513.41;5072407;28;45424;-43
2022/05/19 11:40:17;;;;;;;;;3.00;3.00;;;;;32.70;28.00;101510.41;5078453;28;45348;-45
2022/05/19 11:43:01;;;;;;;;;2.00;2.00;;;;;32.76;28.86;101500.19;5078293;28;46149;-45